sensor_id;sensor_type;location;lat;lon;timestamp;pressure;altitude;pressure_sealevel;temperature;humidity
29909;BME280;36247;51.952;6.146;2024-02-04T00:01:35;102158.19;;;10.30;100.00
29909;BME280;36247;51.952;6.146;2024-02-04T00:04:01;102164.34;;;10.29;100.00
29909;BME280;36247;51.952;6.146;2024-02-04T00:06:26;102165.97;;;10.26;100.00
29909;BME280;36247;51.952;6.146;2024-02-04T00:08:51;102170.56;;;10.31;100.00
29909;BME280;36247;51.952;6.146;2024-02-04T00:11:17;102172.06;;;10.23;100.00
29909;BME280;36247;51.952;6.146;2024-02-04T00:13:42;102181.88;;;10.26;100.00
29909;BME280;36247;51.952;6.146;2024-02-04T00:16:08;102183.50;;;10.22;100.00
29909;BME280;36247;51.952;6.146;2024-02-04T00:18:34;102172.06;;;10.23;100.00
29909;BME280;36247;51.952;6.146;2024-02-04T00:20:59;102172.06;;;10.23;100.00
29909;BME280;36247;51.952;6.146;2024-02-04T00:23:24;102174.75;;;10.24;100.00
29909;BME280;36247;51.952;6.146;2024-02-04T00:25:50;102180.00;;;10.23;100.00
29909;BME280;36247;51.952;6.146;2024-02-04T00:28:15;102171.03;;;10.19;100.00
29909;BME280;36247;51.952;6.146;2024-02-04T00:30:40;102169.47;;;10.24;100.00
29909;BME280;36247;51.952;6.146;2024-02-04T00:33:06;102182.66;;;10.23;100.00
29909;BME280;36247;51.952;6.146;2024-02-04T00:35:31;102183.59;;;10.25;100.00
29909;BME280;36247;51.952;6.146;2024-02-04T00:37:57;102182.03;;;10.30;100.00
29909;BME280;36247;51.952;6.146;2024-02-04T00:40:23;102183.75;;;10.30;100.00
29909;BME280;36247;51.952;6.146;2024-02-04T00:42:48;102186.59;;;10.34;100.00
29909;BME280;36247;51.952;6.146;2024-02-04T00:45:14;102186.47;;;10.31;100.00
29909;BME280;36247;51.952;6.146;2024-02-04T00:47:39;102194.91;;;10.21;100.00
29909;BME280;36247;51.952;6.146;2024-02-04T00:50:05;102191.75;;;10.31;100.00
29909;BME280;36247;51.952;6.146;2024-02-04T00:52:31;102191.81;;;10.33;100.00
29909;BME280;36247;51.952;6.146;2024-02-04T00:54:56;102195.94;;;10.24;100.00
29909;BME280;36247;51.952;6.146;2024-02-04T00:57:22;102186.97;;;10.21;100.00
29909;BME280;36247;51.952;6.146;2024-02-04T00:59:48;102186.91;;;10.19;100.00
29909;BME280;36247;51.952;6.146;2024-02-04T01:02:15;102183.72;;;10.28;100.00
29909;BME280;36247;51.952;6.146;2024-02-04T01:04:40;102186.19;;;10.23;100.00
29909;BME280;36247;51.952;6.146;2024-02-04T01:07:06;102191.31;;;10.19;100.00
29909;BME280;36247;51.952;6.146;2024-02-04T01:09:31;102184.47;;;10.24;100.00
29909;BME280;36247;51.952;6.146;2024-02-04T01:11:57;102180.84;;;10.22;100.00
29909;BME280;36247;51.952;6.146;2024-02-04T01:14:23;102176.56;;;10.26;100.00
29909;BME280;36247;51.952;6.146;2024-02-04T01:16:48;102174.09;;;10.30;100.00
29909;BME280;36247;51.952;6.146;2024-02-04T01:19:13;102176.69;;;10.29;100.00
29909;BME280;36247;51.952;6.146;2024-02-04T01:21:39;102186.34;;;10.28;100.00
29909;BME280;36247;51.952;6.146;2024-02-04T01:24:05;102181.88;;;10.26;100.00
29909;BME280;36247;51.952;6.146;2024-02-04T01:26:30;102177.34;;;10.23;100.00
29909;BME280;36247;51.952;6.146;2024-02-04T01:28:56;102173.06;;;10.27;100.00
29909;BME280;36247;51.952;6.146;2024-02-04T01:31:21;102183.50;;;10.22;100.00
29909;BME280;36247;51.952;6.146;2024-02-04T01:33:46;102177.53;;;10.28;100.00
29909;BME280;36247;51.952;6.146;2024-02-04T01:36:12;102174.72;;;10.23;100.00
29909;BME280;36247;51.952;6.146;2024-02-04T01:38:37;102177.34;;;10.23;100.00
29909;BME280;36247;51.952;6.146;2024-02-04T01:41:03;102171.13;;;10.22;100.00
29909;BME280;36247;51.952;6.146;2024-02-04T01:43:28;102171.94;;;10.20;100.00
29909;BME280;36247;51.952;6.146;2024-02-04T01:45:54;102166.09;;;10.29;100.00
29909;BME280;36247;51.952;6.146;2024-02-04T01:48:21;102174.94;;;10.29;100.00
29909;BME280;36247;51.952;6.146;2024-02-04T01:50:48;102181.06;;;10.28;100.00
29909;BME280;36247;51.952;6.146;2024-02-04T01:53:17;102187.03;;;10.22;100.00
29909;BME280;36247;51.952;6.146;2024-02-04T01:55:44;102180.72;;;10.19;100.00
29909;BME280;36247;51.952;6.146;2024-02-04T01:58:10;102185.13;;;10.18;100.00
29909;BME280;36247;51.952;6.146;2024-02-04T02:00:36;102181.56;;;10.18;100.00
29909;BME280;36247;51.952;6.146;2024-02-04T02:03:01;102179.91;;;10.20;100.00
29909;BME280;36247;51.952;6.146;2024-02-04T02:05:29;102178.31;;;10.25;100.00
29909;BME280;36247;51.952;6.146;2024-02-04T02:07:55;102172.72;;;10.17;100.00
29909;BME280;36247;51.952;6.146;2024-02-04T02:10:21;102175.59;;;10.23;100.00
29909;BME280;36247;51.952;6.146;2024-02-04T02:12:59;102166.88;;;10.26;100.00
29909;BME280;36247;51.952;6.146;2024-02-04T02:15:30;102172.06;;;10.23;100.00
29909;BME280;36247;51.952;6.146;2024-02-04T02:18:09;102184.31;;;10.21;100.00
29909;BME280;36247;51.952;6.146;2024-02-04T02:20:46;102177.34;;;10.23;100.00
29909;BME280;36247;51.952;6.146;2024-02-04T02:23:22;102177.13;;;10.17;100.00
29909;BME280;36247;51.952;6.146;2024-02-04T02:25:54;102185.03;;;10.15;100.00
29909;BME280;36247;51.952;6.146;2024-02-04T02:28:21;102184.22;;;10.18;100.00
29909;BME280;36247;51.952;6.146;2024-02-04T02:30:46;102176.16;;;10.15;100.00
29909;BME280;36247;51.952;6.146;2024-02-04T02:33:12;102177.03;;;10.14;100.00
29909;BME280;36247;51.952;6.146;2024-02-04T02:35:37;102170.09;;;10.17;100.00
29909;BME280;36247;51.952;6.146;2024-02-04T02:38:36;102171.84;;;10.17;100.00
29909;BME280;36247;51.952;6.146;2024-02-04T02:41:08;102165.63;;;10.16;100.00
29909;BME280;36247;51.952;6.146;2024-02-04T02:43:34;102164.72;;;10.16;100.00
29909;BME280;36247;51.952;6.146;2024-02-04T02:46:01;102160.16;;;10.12;100.00
29909;BME280;36247;51.952;6.146;2024-02-04T02:48:27;102159.44;;;10.16;100.00
29909;BME280;36247;51.952;6.146;2024-02-04T02:50:53;102145.53;;;10.21;100.00
29909;BME280;36247;51.952;6.146;2024-02-04T02:53:19;102150.50;;;10.12;100.00
29909;BME280;36247;51.952;6.146;2024-02-04T02:55:45;102156.72;;;10.14;100.00
29909;BME280;36247;51.952;6.146;2024-02-04T02:58:13;102148.50;;;10.06;100.00
29909;BME280;36247;51.952;6.146;2024-02-04T03:00:39;102148.78;;;10.14;100.00
29909;BME280;36247;51.952;6.146;2024-02-04T03:03:04;102148.84;;;10.16;100.00
29909;BME280;36247;51.952;6.146;2024-02-04T03:05:30;102144.03;;;10.05;100.00
29909;BME280;36247;51.952;6.146;2024-02-04T03:07:55;102144.28;;;10.12;100.00
29909;BME280;36247;51.952;6.146;2024-02-04T03:10:21;102150.44;;;10.11;100.00
29909;BME280;36247;51.952;6.146;2024-02-04T03:12:46;102145.91;;;10.08;100.00
29909;BME280;36247;51.952;6.146;2024-02-04T03:15:12;102143.31;;;10.10;100.00
29909;BME280;36247;51.952;6.146;2024-02-04T03:17:37;102138.88;;;10.09;100.00
29909;BME280;36247;51.952;6.146;2024-02-04T03:20:03;102141.50;;;10.09;100.00
29909;BME280;36247;51.952;6.146;2024-02-04T03:22:28;102125.63;;;10.09;100.00
29909;BME280;36247;51.952;6.146;2024-02-04T03:24:54;102129.88;;;10.03;100.00
29909;BME280;36247;51.952;6.146;2024-02-04T03:27:20;102139.59;;;10.04;100.00
29909;BME280;36247;51.952;6.146;2024-02-04T03:29:47;102143.00;;;10.00;100.00
29909;BME280;36247;51.952;6.146;2024-02-04T03:32:13;102158.88;;;10.00;100.00
29909;BME280;36247;51.952;6.146;2024-02-04T03:34:41;102156.94;;;9.96;100.00
29909;BME280;36247;51.952;6.146;2024-02-04T03:37:06;102150.72;;;9.94;100.00
29909;BME280;36247;51.952;6.146;2024-02-04T03:39:32;102143.59;;;9.93;100.00
29909;BME280;36247;51.952;6.146;2024-02-04T03:41:57;102149.97;;;9.98;100.00
29909;BME280;36247;51.952;6.146;2024-02-04T03:44:23;102153.47;;;9.97;100.00
29909;BME280;36247;51.952;6.146;2024-02-04T03:46:49;102151.50;;;9.92;100.00
29909;BME280;36247;51.952;6.146;2024-02-04T03:49:15;102156.72;;;9.90;100.00
29909;BME280;36247;51.952;6.146;2024-02-04T03:51:41;102159.44;;;9.92;100.00
29909;BME280;36247;51.952;6.146;2024-02-04T03:54:06;102148.41;;;10.03;100.00
29909;BME280;36247;51.952;6.146;2024-02-04T03:56:32;102150.00;;;10.00;100.00
29909;BME280;36247;51.952;6.146;2024-02-04T03:58:57;102148.41;;;10.03;100.00
29909;BME280;36247;51.952;6.146;2024-02-04T04:01:23;102180.16;;;10.03;100.00
29909;BME280;36247;51.952;6.146;2024-02-04T04:03:49;102179.06;;;9.98;100.00
29909;BME280;36247;51.952;6.146;2024-02-04T04:06:14;102181.59;;;9.95;100.00
29909;BME280;36247;51.952;6.146;2024-02-04T04:08:40;102197.59;;;9.98;100.00
29909;BME280;36247;51.952;6.146;2024-02-04T04:11:08;102190.41;;;9.94;100.00
29909;BME280;36247;51.952;6.146;2024-02-04T04:13:34;102192.09;;;9.92;100.00
29909;BME280;36247;51.952;6.146;2024-02-04T04:16:00;102179.63;;;9.89;100.00
29909;BME280;36247;51.952;6.146;2024-02-04T04:18:26;102181.09;;;9.81;100.00
29909;BME280;36247;51.952;6.146;2024-02-04T04:20:51;102184.63;;;9.82;100.00
29909;BME280;36247;51.952;6.146;2024-02-04T04:23:17;102172.22;;;9.79;100.00
29909;BME280;36247;51.952;6.146;2024-02-04T04:25:42;102158.28;;;9.85;100.00
29909;BME280;36247;51.952;6.146;2024-02-04T04:28:07;102158.03;;;9.79;100.00
29909;BME280;36247;51.952;6.146;2024-02-04T04:30:33;102156.19;;;9.76;100.00
29909;BME280;36247;51.952;6.146;2024-02-04T04:32:58;102153.31;;;9.70;100.00
29909;BME280;36247;51.952;6.146;2024-02-04T04:35:25;102137.31;;;9.67;100.00
29909;BME280;36247;51.952;6.146;2024-02-04T04:37:50;102135.75;;;9.72;100.00
29909;BME280;36247;51.952;6.146;2024-02-04T04:40:16;102126.84;;;9.70;100.00
29909;BME280;36247;51.952;6.146;2024-02-04T04:42:41;102122.28;;;9.66;100.00
29909;BME280;36247;51.952;6.146;2024-02-04T04:45:07;102129.44;;;9.68;100.00
29909;BME280;36247;51.952;6.146;2024-02-04T04:47:36;102125.94;;;9.69;100.00
29909;BME280;36247;51.952;6.146;2024-02-04T04:50:02;102136.38;;;9.65;100.00
29909;BME280;36247;51.952;6.146;2024-02-04T04:52:28;102138.94;;;9.63;100.00
29909;BME280;36247;51.952;6.146;2024-02-04T04:54:54;102143.63;;;9.70;100.00
29909;BME280;36247;51.952;6.146;2024-02-04T04:57:20;102130.34;;;9.69;100.00
29909;BME280;36247;51.952;6.146;2024-02-04T04:59:46;102129.59;;;9.73;100.00
29909;BME280;36247;51.952;6.146;2024-02-04T05:02:11;102130.28;;;9.67;100.00
29909;BME280;36247;51.952;6.146;2024-02-04T05:04:36;102127.66;;;9.67;100.00
29909;BME280;36247;51.952;6.146;2024-02-04T05:07:02;102117.91;;;9.66;100.00
29909;BME280;36247;51.952;6.146;2024-02-04T05:09:27;102116.94;;;9.64;100.00
29909;BME280;36247;51.952;6.146;2024-02-04T05:11:53;102118.56;;;9.61;100.00
29909;BME280;36247;51.952;6.146;2024-02-04T05:14:18;102116.44;;;9.52;100.00
29909;BME280;36247;51.952;6.146;2024-02-04T05:16:45;102115.78;;;9.58;100.00
29909;BME280;36247;51.952;6.146;2024-02-04T05:19:11;102116.34;;;9.49;100.00
29909;BME280;36247;51.952;6.146;2024-02-04T05:21:39;102101.38;;;9.49;100.00
29909;BME280;36247;51.952;6.146;2024-02-04T05:24:05;102107.63;;;9.51;100.00
29909;BME280;36247;51.952;6.146;2024-02-04T05:26:30;102111.97;;;9.49;100.00
29909;BME280;36247;51.952;6.146;2024-02-04T05:28:56;102116.44;;;9.52;100.00
29909;BME280;36247;51.952;6.146;2024-02-04T05:31:21;102115.50;;;9.50;100.00
29909;BME280;36247;51.952;6.146;2024-02-04T05:33:47;102101.94;;;9.41;100.00
29909;BME280;36247;51.952;6.146;2024-02-04T05:36:12;102094.72;;;9.37;100.00
29909;BME280;36247;51.952;6.146;2024-02-04T05:38:38;102113.28;;;9.38;100.00
29909;BME280;36247;51.952;6.146;2024-02-04T05:41:03;102118.44;;;9.35;100.00
29909;BME280;36247;51.952;6.146;2024-02-04T05:43:28;102129.22;;;9.40;100.00
29909;BME280;36247;51.952;6.146;2024-02-04T05:45:54;102124.50;;;9.32;100.00
29909;BME280;36247;51.952;6.146;2024-02-04T05:48:20;102127.75;;;9.25;100.00
29909;BME280;36247;51.952;6.146;2024-02-04T05:50:45;102122.00;;;9.35;100.00
29909;BME280;36247;51.952;6.146;2024-02-04T05:53:11;102127.81;;;9.27;100.00
29909;BME280;36247;51.952;6.146;2024-02-04T05:55:36;102128.97;;;9.33;100.00
29909;BME280;36247;51.952;6.146;2024-02-04T05:58:02;102112.81;;;9.26;100.00
29909;BME280;36247;51.952;6.146;2024-02-04T06:00:27;102108.72;;;9.34;100.00
29909;BME280;36247;51.952;6.146;2024-02-04T06:02:52;102092.47;;;9.25;100.00
29909;BME280;36247;51.952;6.146;2024-02-04T06:05:18;102104.00;;;9.27;100.00
29909;BME280;36247;51.952;6.146;2024-02-04T06:07:43;102089.97;;;9.28;100.00
29909;BME280;36247;51.952;6.146;2024-02-04T06:10:09;102073.09;;;9.24;100.00
29909;BME280;36247;51.952;6.146;2024-02-04T06:12:35;102087.25;;;9.26;100.00
29909;BME280;36247;51.952;6.146;2024-02-04T06:15:00;102093.91;;;9.16;100.00
29909;BME280;36247;51.952;6.146;2024-02-04T06:17:26;102085.56;;;9.28;100.00
29909;BME280;36247;51.952;6.146;2024-02-04T06:19:51;102092.31;;;9.20;100.00
29909;BME280;36247;51.952;6.146;2024-02-04T06:22:17;102094.34;;;9.27;100.00
29909;BME280;36247;51.952;6.146;2024-02-04T06:24:42;102074.09;;;9.28;100.00
29909;BME280;36247;51.952;6.146;2024-02-04T06:27:08;102086.44;;;9.27;100.00
29909;BME280;36247;51.952;6.146;2024-02-04T06:29:34;102092.38;;;9.22;100.00
29909;BME280;36247;51.952;6.146;2024-02-04T06:31:59;102079.78;;;9.39;100.00
29909;BME280;36247;51.952;6.146;2024-02-04T06:34:25;102078.13;;;9.41;100.00
29909;BME280;36247;51.952;6.146;2024-02-04T06:36:50;102080.66;;;9.38;100.00
29909;BME280;36247;51.952;6.146;2024-02-04T06:39:16;102075.84;;;9.27;100.00
29909;BME280;36247;51.952;6.146;2024-02-04T06:41:41;102074.16;;;9.29;100.00
29909;BME280;36247;51.952;6.146;2024-02-04T06:44:07;102078.50;;;9.27;100.00
29909;BME280;36247;51.952;6.146;2024-02-04T06:46:32;102077.44;;;9.24;100.00
29909;BME280;36247;51.952;6.146;2024-02-04T06:48:58;102063.41;;;9.25;100.00
29909;BME280;36247;51.952;6.146;2024-02-04T06:51:23;102056.84;;;9.15;100.00
29909;BME280;36247;51.952;6.146;2024-02-04T06:53:49;102050.66;;;9.14;100.00
29909;BME280;36247;51.952;6.146;2024-02-04T06:56:14;102074.69;;;9.21;100.00
29909;BME280;36247;51.952;6.146;2024-02-04T06:58:41;102064.00;;;9.17;100.00
29909;BME280;36247;51.952;6.146;2024-02-04T07:01:07;102066.75;;;9.21;100.00
29909;BME280;36247;51.952;6.146;2024-02-04T07:03:32;102069.47;;;9.22;100.00
29909;BME280;36247;51.952;6.146;2024-02-04T07:06:01;102070.72;;;9.32;100.00
29909;BME280;36247;51.952;6.146;2024-02-04T07:08:27;102071.44;;;9.28;100.00
29909;BME280;36247;51.952;6.146;2024-02-04T07:10:52;102090.72;;;9.25;100.00
29909;BME280;36247;51.952;6.146;2024-02-04T07:13:18;102084.84;;;9.32;100.00
29909;BME280;36247;51.952;6.146;2024-02-04T07:15:45;102068.25;;;9.37;100.00
29909;BME280;36247;51.952;6.146;2024-02-04T07:18:10;102063.16;;;9.41;100.00
29909;BME280;36247;51.952;6.146;2024-02-04T07:20:36;102062.31;;;9.42;100.00
29909;BME280;36247;51.952;6.146;2024-02-04T07:23:02;102055.22;;;9.41;100.00
29909;BME280;36247;51.952;6.146;2024-02-04T07:25:28;102078.34;;;9.47;100.00
29909;BME280;36247;51.952;6.146;2024-02-04T07:27:54;102072.34;;;9.51;100.00
29909;BME280;36247;51.952;6.146;2024-02-04T07:30:20;102070.53;;;9.50;100.00
29909;BME280;36247;51.952;6.146;2024-02-04T07:32:46;102069.88;;;9.56;100.00
29909;BME280;36247;51.952;6.146;2024-02-04T07:35:11;102065.63;;;9.61;100.00
29909;BME280;36247;51.952;6.146;2024-02-04T07:37:37;102060.34;;;9.61;100.00
29909;BME280;36247;51.952;6.146;2024-02-04T07:40:02;102054.34;;;9.65;100.00
29909;BME280;36247;51.952;6.146;2024-02-04T07:42:30;102055.94;;;9.61;100.00
29909;BME280;36247;51.952;6.146;2024-02-04T07:44:56;102051.53;;;9.60;100.00
29909;BME280;36247;51.952;6.146;2024-02-04T07:47:22;102059.56;;;9.63;100.00
29909;BME280;36247;51.952;6.146;2024-02-04T07:49:48;102065.97;;;9.70;100.00
29909;BME280;36247;51.952;6.146;2024-02-04T07:52:14;102055.44;;;9.71;100.00
29909;BME280;36247;51.952;6.146;2024-02-04T07:54:39;102067.94;;;9.76;100.00
29909;BME280;36247;51.952;6.146;2024-02-04T07:57:04;102061.81;;;9.77;100.00
29909;BME280;36247;51.952;6.146;2024-02-04T07:59:30;102063.09;;;9.88;100.00
29909;BME280;36247;51.952;6.146;2024-02-04T08:01:55;102056.75;;;9.83;100.00
29909;BME280;36247;51.952;6.146;2024-02-04T08:04:21;102057.03;;;9.91;100.00
29909;BME280;36247;51.952;6.146;2024-02-04T08:06:46;102054.22;;;9.86;100.00
29909;BME280;36247;51.952;6.146;2024-02-04T08:09:12;102058.78;;;9.90;100.00
29909;BME280;36247;51.952;6.146;2024-02-04T08:11:37;102073.94;;;9.94;100.00
29909;BME280;36247;51.952;6.146;2024-02-04T08:14:03;102058.06;;;9.94;100.00
29909;BME280;36247;51.952;6.146;2024-02-04T08:16:28;102062.75;;;10.03;100.00
29909;BME280;36247;51.952;6.146;2024-02-04T08:18:54;102051.06;;;9.96;100.00
29909;BME280;36247;51.952;6.146;2024-02-04T08:21:19;102059.06;;;9.98;100.00
29909;BME280;36247;51.952;6.146;2024-02-04T08:23:45;102051.44;;;10.07;100.00
29909;BME280;36247;51.952;6.146;2024-02-04T08:26:10;102053.88;;;10.01;100.00
29909;BME280;36247;51.952;6.146;2024-02-04T08:28:36;102037.19;;;10.03;100.00
29909;BME280;36247;51.952;6.146;2024-02-04T08:31:01;102045.97;;;10.02;100.00
29909;BME280;36247;51.952;6.146;2024-02-04T08:33:26;102050.66;;;10.10;100.00
29909;BME280;36247;51.952;6.146;2024-02-04T08:35:52;102061.03;;;10.03;100.00
29909;BME280;36247;51.952;6.146;2024-02-04T08:38:17;102061.28;;;10.11;100.00
29909;BME280;36247;51.952;6.146;2024-02-04T08:40:43;102057.50;;;10.04;100.00
29909;BME280;36247;51.952;6.146;2024-02-04T08:43:08;102055.94;;;10.10;100.00
29909;BME280;36247;51.952;6.146;2024-02-04T08:45:33;102061.34;;;10.13;100.00
29909;BME280;36247;51.952;6.146;2024-02-04T08:47:59;102058.38;;;10.03;100.00
29909;BME280;36247;51.952;6.146;2024-02-04T08:50:24;102053.28;;;10.10;100.00
29909;BME280;36247;51.952;6.146;2024-02-04T08:52:50;102049.47;;;10.01;100.00
29909;BME280;36247;51.952;6.146;2024-02-04T08:55:15;102043.31;;;10.02;100.00
29909;BME280;36247;51.952;6.146;2024-02-04T08:57:40;102035.00;;;9.92;100.00
29909;BME280;36247;51.952;6.146;2024-02-04T09:00:06;102032.56;;;9.98;100.00
29909;BME280;36247;51.952;6.146;2024-02-04T09:02:37;102031.34;;;9.88;100.00
29909;BME280;36247;51.952;6.146;2024-02-04T09:05:03;102027.06;;;9.92;100.00
29909;BME280;36247;51.952;6.146;2024-02-04T09:07:28;102033.09;;;9.87;100.00
29909;BME280;36247;51.952;6.146;2024-02-04T09:09:53;102030.66;;;9.94;100.00
29909;BME280;36247;51.952;6.146;2024-02-04T09:12:19;102035.06;;;9.93;100.00
29909;BME280;36247;51.952;6.146;2024-02-04T09:14:44;102039.38;;;9.91;100.00
29909;BME280;36247;51.952;6.146;2024-02-04T09:17:10;102038.16;;;9.81;100.00
29909;BME280;36247;51.952;6.146;2024-02-04T09:19:35;102031.34;;;9.88;100.00
29909;BME280;36247;51.952;6.146;2024-02-04T09:22:01;102036.34;;;9.80;100.00
29909;BME280;36247;51.952;6.146;2024-02-04T09:24:27;102038.06;;;9.78;100.00
29909;BME280;36247;51.952;6.146;2024-02-04T09:26:53;102045.22;;;9.81;100.00
29909;BME280;36247;51.952;6.146;2024-02-04T09:29:19;102032.81;;;9.80;100.00
29909;BME280;36247;51.952;6.146;2024-02-04T09:31:44;102035.84;;;9.91;100.00
29909;BME280;36247;51.952;6.146;2024-02-04T09:34:10;102041.88;;;9.86;100.00
29909;BME280;36247;51.952;6.146;2024-02-04T09:36:35;102043.69;;;9.87;100.00
29909;BME280;36247;51.952;6.146;2024-02-04T09:39:01;102050.84;;;9.90;100.00
29909;BME280;36247;51.952;6.146;2024-02-04T09:41:26;102047.66;;;9.76;100.00
29909;BME280;36247;51.952;6.146;2024-02-04T09:43:52;102044.47;;;9.85;100.00
29909;BME280;36247;51.952;6.146;2024-02-04T09:46:19;102053.50;;;9.90;100.00
29909;BME280;36247;51.952;6.146;2024-02-04T09:48:45;102046.59;;;9.95;100.00
29909;BME280;36247;51.952;6.146;2024-02-04T09:51:11;102043.38;;;10.04;100.00
29909;BME280;36247;51.952;6.146;2024-02-04T09:53:41;102029.63;;;10.14;100.00
29909;BME280;36247;51.952;6.146;2024-02-04T09:56:08;102031.38;;;10.14;100.00
29909;BME280;36247;51.952;6.146;2024-02-04T09:58:34;102025.41;;;10.21;100.00
29909;BME280;36247;51.952;6.146;2024-02-04T10:01:00;102031.53;;;10.18;100.00
29909;BME280;36247;51.952;6.146;2024-02-04T10:03:26;102028.34;;;10.29;100.00
29909;BME280;36247;51.952;6.146;2024-02-04T10:05:51;102031.06;;;10.30;100.00
29909;BME280;36247;51.952;6.146;2024-02-04T10:08:17;102042.00;;;10.39;100.00
29909;BME280;36247;51.952;6.146;2024-02-04T10:10:43;102038.38;;;10.37;100.00
29909;BME280;36247;51.952;6.146;2024-02-04T10:13:09;102045.69;;;10.45;100.00
29909;BME280;36247;51.952;6.146;2024-02-04T10:15:35;102055.53;;;10.49;100.00
29909;BME280;36247;51.952;6.146;2024-02-04T10:18:04;102045.38;;;10.63;100.00
29909;BME280;36247;51.952;6.146;2024-02-04T10:20:31;102041.72;;;10.57;100.00
29909;BME280;36247;51.952;6.146;2024-02-04T10:22:56;102042.06;;;10.68;100.00
29909;BME280;36247;51.952;6.146;2024-02-04T10:25:22;102045.66;;;10.70;100.00
29909;BME280;36247;51.952;6.146;2024-02-04T10:27:47;102042.28;;;10.76;100.00
29909;BME280;36247;51.952;6.146;2024-02-04T10:30:13;102041.34;;;10.74;100.00
29909;BME280;36247;51.952;6.146;2024-02-04T10:32:39;102040.81;;;10.84;100.00
29909;BME280;36247;51.952;6.146;2024-02-04T10:35:10;102036.25;;;10.80;100.00
29909;BME280;36247;51.952;6.146;2024-02-04T10:37:35;102031.88;;;10.82;100.00
29909;BME280;36247;51.952;6.146;2024-02-04T10:40:00;102028.81;;;10.97;100.00
29909;BME280;36247;51.952;6.146;2024-02-04T10:42:27;102040.06;;;10.88;100.00
29909;BME280;36247;51.952;6.146;2024-02-04T10:44:57;102041.78;;;10.88;100.00
29909;BME280;36247;51.952;6.146;2024-02-04T10:47:25;102043.47;;;10.84;100.00
29909;BME280;36247;51.952;6.146;2024-02-04T10:49:53;102050.63;;;10.87;100.00
29909;BME280;36247;51.952;6.146;2024-02-04T10:52:19;102043.09;;;11.01;100.00
29909;BME280;36247;51.952;6.146;2024-02-04T10:54:45;102037.69;;;10.98;100.00
29909;BME280;36247;51.952;6.146;2024-02-04T10:57:19;102030.94;;;11.09;100.00
29909;BME280;36247;51.952;6.146;2024-02-04T10:59:46;102030.44;;;11.21;100.00
29909;BME280;36247;51.952;6.146;2024-02-04T11:02:12;102030.66;;;11.28;100.00
29909;BME280;36247;51.952;6.146;2024-02-04T11:04:41;102026.56;;;11.09;100.00
29909;BME280;36247;51.952;6.146;2024-02-04T11:07:08;102036.13;;;11.04;100.00
29909;BME280;36247;51.952;6.146;2024-02-04T11:09:36;102033.81;;;11.15;100.00
29909;BME280;36247;51.952;6.146;2024-02-04T11:12:04;102025.00;;;11.16;100.00
29909;BME280;36247;51.952;6.146;2024-02-04T11:14:33;102022.44;;;11.19;100.00
29909;BME280;36247;51.952;6.146;2024-02-04T11:17:16;102020.75;;;11.21;100.00
29909;BME280;36247;51.952;6.146;2024-02-04T11:25:47;102032.84;;;11.13;100.00
29909;BME280;36247;51.952;6.146;2024-02-04T11:28:15;102031.78;;;11.06;100.00
29909;BME280;36247;51.952;6.146;2024-02-04T11:30:43;102022.81;;;10.74;100.00
29909;BME280;36247;51.952;6.146;2024-02-04T11:33:11;102018.84;;;10.61;100.00
29909;BME280;36247;51.952;6.146;2024-02-04T11:35:37;102018.16;;;10.39;100.00
29909;BME280;36247;51.952;6.146;2024-02-04T11:38:03;102017.47;;;10.45;100.00
29909;BME280;36247;51.952;6.146;2024-02-04T11:40:36;102019.91;;;10.39;100.00
29909;BME280;36247;51.952;6.146;2024-02-04T11:43:03;102012.31;;;10.50;100.00
29909;BME280;36247;51.952;6.146;2024-02-04T11:45:29;102008.41;;;10.38;100.00
29909;BME280;36247;51.952;6.146;2024-02-04T11:48:00;102003.38;;;10.48;100.00
29909;BME280;36247;51.952;6.146;2024-02-04T11:50:28;102012.53;;;10.30;100.00
29909;BME280;36247;51.952;6.146;2024-02-04T11:53:10;102001.72;;;10.50;100.00
29909;BME280;36247;51.952;6.146;2024-02-04T11:55:40;101996.16;;;10.42;100.00
29909;BME280;36247;51.952;6.146;2024-02-04T11:58:07;101992.25;;;10.32;100.00
29909;BME280;36247;51.952;6.146;2024-02-04T12:00:33;101987.19;;;10.38;100.00
29909;BME280;36247;51.952;6.146;2024-02-04T12:03:05;101988.28;;;10.19;100.00
29909;BME280;36247;51.952;6.146;2024-02-04T12:05:33;101988.03;;;10.37;100.00
29909;BME280;36247;51.952;6.146;2024-02-04T12:08:03;101989.56;;;10.31;100.00
29909;BME280;36247;51.952;6.146;2024-02-04T12:10:34;101966.38;;;10.23;100.00
29909;BME280;36247;51.952;6.146;2024-02-04T12:13:05;101964.16;;;10.36;100.00
29909;BME280;36247;51.952;6.146;2024-02-04T12:15:33;101963.97;;;10.31;100.00
29909;BME280;36247;51.952;6.146;2024-02-04T12:18:09;101963.47;;;10.41;100.00
29909;BME280;36247;51.952;6.146;2024-02-04T12:20:35;101972.50;;;10.22;100.00
29909;BME280;36247;51.952;6.146;2024-02-04T12:23:05;101971.97;;;10.33;100.00
29909;BME280;36247;51.952;6.146;2024-02-04T12:25:31;101959.50;;;10.29;100.00
29909;BME280;36247;51.952;6.146;2024-02-04T12:28:02;101946.44;;;10.33;100.00
29909;BME280;36247;51.952;6.146;2024-02-04T12:30:29;101942.63;;;10.27;100.00
29909;BME280;36247;51.952;6.146;2024-02-04T12:33:01;101938.31;;;10.29;100.00
29909;BME280;36247;51.952;6.146;2024-02-04T12:35:27;101934.00;;;10.32;100.00
29909;BME280;36247;51.952;6.146;2024-02-04T12:37:57;101939.88;;;10.23;100.00
29909;BME280;36247;51.952;6.146;2024-02-04T12:40:25;101936.41;;;10.24;100.00
29909;BME280;36247;51.952;6.146;2024-02-04T12:42:57;101942.59;;;10.25;100.00
29909;BME280;36247;51.952;6.146;2024-02-04T12:45:23;101960.19;;;10.23;100.00
29909;BME280;36247;51.952;6.146;2024-02-04T12:47:53;101954.88;;;10.23;100.00